Tabuk, Saudi Arabia
Current Conditions -  °F | °C
As of 2:00 PM on Monday 20 Oct 2014 (Local Time) from OETB Reporting Station
Scattered Clouds Scattered Clouds  
Wind Chill: 75°   Ceiling: Unl
Heat Index: 75°   Visibility: 6mi
Dew Point: 41°   Wind: 15mph
Humidity: 29%   Direction: 330°NNW
Pressure: 29.88"   Gusts: NA
Location:  28.39°N, 36.57°E
Report Text: OETB 201100Z 33013KT 9999 SCT040 24/05 Q1012 NOSIG
Loading
Personal Weather Stations






























Interactive Weather Map
Tropical Storm Tracking
New forecast layout! Learn more

10-Day Weather Forecast

Advertisements
Track Severe Weather on mobile